createdAt,value
2023-03-29T00:00:51.242Z,60.77
2023-03-29T00:04:07.787Z,60.70
2023-03-29T00:08:00.400Z,60.62
2023-03-29T00:11:17.597Z,60.58
2023-03-29T00:14:50.959Z,60.56
2023-03-29T00:18:08.276Z,60.59
2023-03-29T00:22:31.881Z,60.63
2023-03-29T00:25:35.000Z,60.56
2023-03-29T00:28:56.008Z,60.31
2023-03-29T00:32:02.510Z,60.27
2023-03-29T00:35:13.248Z,59.92
2023-03-29T00:38:32.571Z,59.73
2023-03-29T00:41:55.733Z,59.75
2023-03-29T00:45:36.291Z,59.61
2023-03-29T00:48:56.452Z,59.59
2023-03-29T00:52:11.533Z,59.84
2023-03-29T00:55:31.504Z,60.12
2023-03-29T00:58:51.837Z,60.52
2023-03-29T01:02:16.057Z,61.61
2023-03-29T01:05:19.478Z,62.91
2023-03-29T01:08:39.978Z,63.61
2023-03-29T01:12:41.651Z,64.00
2023-03-29T01:15:42.049Z,63.84
2023-03-29T01:19:22.211Z,63.88
2023-03-29T01:23:07.897Z,64.43
2023-03-29T01:26:20.044Z,64.71
2023-03-29T01:29:55.370Z,64.84
2023-03-29T01:33:17.538Z,64.62
2023-03-29T01:36:40.091Z,64.48
2023-03-29T01:39:57.715Z,64.63
2023-03-29T01:43:27.374Z,63.86
2023-03-29T01:46:20.256Z,63.88
2023-03-29T01:49:40.275Z,62.87
2023-03-29T01:52:50.003Z,62.61
2023-03-29T01:56:01.252Z,62.50
2023-03-29T01:59:25.888Z,61.76
2023-03-29T02:02:29.915Z,61.93
2023-03-29T02:05:55.337Z,61.24
2023-03-29T02:08:32.762Z,60.50
2023-03-29T02:11:17.159Z,59.25
2023-03-29T02:14:31.115Z,58.97
2023-03-29T02:17:43.575Z,59.34
2023-03-29T02:21:10.615Z,59.48
2023-03-29T02:24:00.357Z,59.25
2023-03-29T02:26:53.484Z,60.00
2023-03-29T02:30:12.202Z,60.33
2023-03-29T02:32:55.106Z,61.19
2023-03-29T02:35:57.275Z,61.47
2023-03-29T02:39:13.691Z,61.93
2023-03-29T02:42:23.373Z,62.08
2023-03-29T02:45:46.530Z,61.60
2023-03-29T02:48:40.614Z,61.96
2023-03-29T02:51:56.880Z,62.34
2023-03-29T02:54:48.739Z,62.75
2023-03-29T02:58:06.634Z,62.95
2023-03-29T03:01:10.686Z,62.70
2023-03-29T03:04:03.373Z,62.79
2023-03-29T03:06:45.261Z,62.60
2023-03-29T03:10:08.904Z,62.61
2023-03-29T03:13:04.236Z,61.95
2023-03-29T03:22:17.520Z,61.78
2023-03-29T03:25:15.140Z,61.51
2023-03-29T03:28:08.087Z,61.49
2023-03-29T03:30:41.326Z,61.62
2023-03-29T03:34:08.294Z,61.61
2023-03-29T03:37:15.600Z,61.52
2023-03-29T03:40:09.873Z,61.67
2023-03-29T03:43:41.277Z,62.09
2023-03-29T03:46:39.354Z,61.66
2023-03-29T03:49:42.867Z,62.09
2023-03-29T03:52:32.488Z,62.01
2023-03-29T03:55:06.751Z,62.10
2023-03-29T03:57:53.942Z,61.74
2023-03-29T04:00:27.341Z,61.97
2023-03-29T04:03:17.492Z,61.16
2023-03-29T04:05:48.184Z,61.57
2023-03-29T04:08:24.121Z,61.63
2023-03-29T04:11:14.111Z,61.60
2023-03-29T04:13:44.669Z,61.73
2023-03-29T04:16:47.866Z,61.87
2023-03-29T04:19:39.560Z,61.80
2023-03-29T04:22:10.757Z,61.59
2023-03-29T04:24:42.056Z,61.70
2023-03-29T04:27:26.444Z,61.81
2023-03-29T04:29:55.474Z,61.91
2023-03-29T04:32:47.994Z,62.18
2023-03-29T04:35:43.751Z,62.11
2023-03-29T04:38:26.849Z,62.31
2023-03-29T04:41:15.706Z,62.02
2023-03-29T04:43:47.881Z,62.11
2023-03-29T04:46:29.181Z,62.07
2023-03-29T04:49:19.174Z,61.66
2023-03-29T04:51:54.598Z,61.72
2023-03-29T04:54:29.856Z,61.61
2023-03-29T04:57:18.282Z,61.48
2023-03-29T04:59:57.968Z,61.49
2023-03-29T05:02:59.508Z,61.23
2023-03-29T05:05:29.132Z,61.09
2023-03-29T05:07:58.373Z,60.89
2023-03-29T05:10:33.172Z,60.86
2023-03-29T05:13:04.824Z,60.70
2023-03-29T05:15:34.202Z,60.64
2023-03-29T05:18:05.927Z,60.70
2023-03-29T05:20:36.432Z,60.61
2023-03-29T05:23:05.866Z,60.51
2023-03-29T05:26:12.844Z,60.76
2023-03-29T05:28:42.844Z,60.51
2023-03-29T05:31:15.405Z,60.36
2023-03-29T05:33:48.293Z,60.08
2023-03-29T05:36:19.376Z,59.87
2023-03-29T05:38:51.827Z,59.50
2023-03-29T05:41:25.173Z,59.31
2023-03-29T05:44:23.073Z,58.95
2023-03-29T05:46:58.104Z,58.67
2023-03-29T05:49:29.732Z,58.73
2023-03-29T05:52:23.227Z,58.69
2023-03-29T05:54:59.676Z,58.10
2023-03-29T05:57:30.894Z,58.34
2023-03-29T06:00:18.509Z,58.47
2023-03-29T06:02:47.666Z,58.53
2023-03-29T06:05:20.246Z,58.44
2023-03-29T06:08:04.175Z,58.17
2023-03-29T06:11:04.849Z,57.79
2023-03-29T06:13:55.969Z,57.50
2023-03-29T06:16:29.621Z,57.13
2023-03-29T06:19:00.998Z,57.09
2023-03-29T06:21:36.221Z,56.74
2023-03-29T06:24:07.106Z,56.39
2023-03-29T06:26:49.571Z,56.30
2023-03-29T06:29:20.556Z,56.14
2023-03-29T06:31:52.035Z,56.11
2023-03-29T06:34:42.797Z,55.91
2023-03-29T06:37:33.278Z,55.35
2023-03-29T06:40:24.087Z,54.67
2023-03-29T06:43:02.299Z,55.21
2023-03-29T06:45:54.384Z,54.75
2023-03-29T06:48:46.174Z,53.80
2023-03-29T06:51:16.444Z,53.25
2023-03-29T06:53:48.306Z,52.69
2023-03-29T06:56:20.834Z,52.49
2023-03-29T06:59:00.984Z,52.01
2023-03-29T07:01:36.276Z,51.26
2023-03-29T07:04:20.547Z,51.48
2023-03-29T07:07:23.559Z,50.69
2023-03-29T07:10:02.783Z,50.41
2023-03-29T07:12:54.389Z,50.53
2023-03-29T07:15:25.932Z,50.27
2023-03-29T07:18:15.342Z,49.33
2023-03-29T07:21:07.207Z,49.82
2023-03-29T07:24:07.056Z,49.61
2023-03-29T07:27:04.195Z,49.07
2023-03-29T07:30:04.454Z,48.31
2023-03-29T07:32:51.684Z,48.55
2023-03-29T07:35:50.926Z,48.36
2023-03-29T07:38:21.777Z,48.09
2023-03-29T07:41:04.097Z,48.16
2023-03-29T07:43:48.393Z,47.78
2023-03-29T07:46:26.714Z,47.70
2023-03-29T07:55:29.856Z,47.69
2023-03-29T07:58:10.887Z,46.62
2023-03-29T08:00:43.246Z,46.58
2023-03-29T08:04:01.273Z,47.50
2023-03-29T08:06:51.288Z,47.73
2023-03-29T08:09:44.376Z,47.61
2023-03-29T08:12:38.942Z,47.32
2023-03-29T08:15:21.998Z,46.77
2023-03-29T08:17:56.331Z,46.40
2023-03-29T08:20:28.976Z,46.29
2023-03-29T08:23:22.907Z,45.15
2023-03-29T08:26:23.902Z,46.73
2023-03-29T08:29:00.920Z,46.77
2023-03-29T08:31:34.097Z,46.64
2023-03-29T08:34:34.239Z,46.66
2023-03-29T08:37:37.839Z,46.55
2023-03-29T08:40:22.106Z,46.66
2023-03-29T08:43:40.694Z,46.67
2023-03-29T08:46:57.509Z,46.41
2023-03-29T08:50:06.790Z,46.03
2023-03-29T08:53:00.768Z,45.33
2023-03-29T08:56:20.591Z,44.84
2023-03-29T08:59:38.163Z,44.76
2023-03-29T09:03:10.026Z,45.52
